Time;durP1;ratioP1;P1;durP2;ratioP2;P2;SDS_P1;SDS_P2;PMS_P1;PMS_P2;Temp;Humidity;BMP_temperature;BMP_pressure;BME280_temperature;BME280_humidity;BME280_pressure;Samples;Min_cycle;Max_cycle;Signal;HPM_P1;HPM_P2
2022/11/02 00:01:27;;;;;;;2.65;0.63;;;;;;;14.03;74.86;100848.97;4934498;29;20111;-72
2022/11/02 00:03:52;;;;;;;2.20;0.65;;;;;;;14.09;74.92;100842.06;4931316;29;20162;-72
2022/11/02 00:06:18;;;;;;;3.10;0.75;;;;;;;14.10;74.87;100846.34;4933230;29;20162;-72
2022/11/02 00:08:44;;;;;;;1.98;0.68;;;;;;;14.03;74.47;100840.84;4934193;29;20090;-72
2022/11/02 00:11:12;;;;;;;1.98;0.63;;;;;;;14.11;74.54;100845.19;4932653;29;20456;-72
2022/11/02 00:13:38;;;;;;;1.05;0.40;;;;;;;14.13;74.19;100829.34;4948330;28;20040;-73
2022/11/02 00:16:06;;;;;;;1.15;0.40;;;;;;;14.01;74.75;100837.78;4945064;28;20024;-72
2022/11/02 00:18:33;;;;;;;0.88;0.40;;;;;;;14.09;74.71;100833.94;4952399;29;20050;-72
2022/11/02 00:21:00;;;;;;;3.30;0.70;;;;;;;14.03;75.25;100835.44;4944122;29;20035;-71
2022/11/02 00:23:26;;;;;;;1.25;0.52;;;;;;;14.00;75.12;100828.06;4948731;28;20788;-73
2022/11/02 00:25:53;;;;;;;1.50;0.70;;;;;;;13.98;75.20;100833.09;4948015;29;20036;-73
2022/11/02 00:28:18;;;;;;;7.28;0.63;;;;;;;13.85;75.49;100823.69;4965429;28;20031;-72
2022/11/02 00:30:44;;;;;;;3.97;0.55;;;;;;;14.05;74.82;100822.31;4950948;29;20037;-72
2022/11/02 00:33:10;;;;;;;1.48;0.57;;;;;;;14.01;75.11;100821.53;4936519;28;20093;-72
2022/11/02 00:35:36;;;;;;;1.60;0.50;;;;;;;14.06;75.35;100814.97;4949835;29;20547;-73
2022/11/02 00:38:02;;;;;;;4.95;1.13;;;;;;;14.02;75.52;100820.34;4952597;28;20046;-72
2022/11/02 00:40:28;;;;;;;0.60;0.43;;;;;;;14.04;75.41;100818.06;4952664;29;20047;-72
2022/11/02 00:42:53;;;;;;;1.30;0.57;;;;;;;14.06;75.89;100817.66;4944717;28;20119;-72
2022/11/02 00:45:19;;;;;;;3.88;0.63;;;;;;;14.12;75.24;100816.19;4969339;28;20027;-72
2022/11/02 00:47:45;;;;;;;4.90;0.55;;;;;;;14.19;75.11;100805.41;4931921;29;20085;-72
2022/11/02 00:50:10;;;;;;;0.95;0.52;;;;;;;14.17;75.01;100802.28;4967619;28;20070;-73
2022/11/02 00:52:39;;;;;;;6.03;0.40;;;;;;;14.23;74.74;100801.56;4955875;29;20377;-73
2022/11/02 00:55:09;;;;;;;0.82;0.60;;;;;;;14.27;74.32;100797.00;4969658;28;20070;-73
2022/11/02 00:57:39;;;;;;;1.85;1.10;;;;;;;14.16;74.81;100803.44;4964717;28;20955;-73
2022/11/02 01:00:08;;;;;;;2.17;0.65;;;;;;;14.12;75.05;100799.94;4969260;28;20054;-72
2022/11/02 01:02:35;;;;;;;4.55;0.85;;;;;;;14.14;75.34;100803.81;4952612;28;20035;-72
2022/11/02 01:05:01;;;;;;;2.38;0.55;;;;;;;14.12;75.32;100791.81;4969528;28;20399;-73
2022/11/02 01:07:27;;;;;;;1.20;0.45;;;;;;;14.11;75.29;100793.72;4969399;28;20035;-73
2022/11/02 01:09:53;;;;;;;2.17;0.60;;;;;;;14.13;75.51;100796.84;4951487;28;20035;-72
2022/11/02 01:12:20;;;;;;;1.50;0.60;;;;;;;14.10;75.69;100792.19;4965185;28;20042;-72
2022/11/02 01:14:46;;;;;;;2.03;0.63;;;;;;;13.97;76.28;100785.50;4954076;29;20039;-72
2022/11/02 01:17:13;;;;;;;0.55;0.40;;;;;;;13.97;76.42;100788.22;4970092;28;20161;-72
2022/11/02 01:19:40;;;;;;;2.22;0.50;;;;;;;13.78;76.96;100782.22;4951874;28;20562;-72
2022/11/02 01:22:06;;;;;;;5.30;0.63;;;;;;;13.87;76.88;100769.94;4954882;29;20117;-72
2022/11/02 01:24:33;;;;;;;1.00;0.40;;;;;;;13.86;77.01;100781.16;4953875;28;20046;-72
2022/11/02 01:26:58;;;;;;;2.17;0.45;;;;;;;13.93;77.07;100779.28;4954783;28;20061;-72
2022/11/02 01:29:24;;;;;;;0.95;0.35;;;;;;;13.93;76.84;100770.38;4968125;28;20046;-72
2022/11/02 01:31:51;;;;;;;1.88;0.55;;;;;;;14.05;75.76;100770.09;4949509;28;20043;-72
2022/11/02 01:34:16;;;;;;;1.20;0.50;;;;;;;13.99;76.41;100774.28;4938087;29;20031;-72
2022/11/02 01:36:44;;;;;;;1.67;0.40;;;;;;;14.03;76.09;100769.69;4951809;28;20476;-72
2022/11/02 01:39:10;;;;;;;3.17;1.05;;;;;;;13.87;76.77;100766.44;4955120;29;20035;-72
2022/11/02 01:41:35;;;;;;;1.77;0.82;;;;;;;13.84;76.84;100767.97;4954027;29;20039;-72
2022/11/02 01:44:02;;;;;;;1.65;0.60;;;;;;;13.82;77.05;100764.84;4963754;28;20059;-72
2022/11/02 01:46:41;;;;;;;3.63;0.90;;;;;;;13.75;77.25;100772.91;4954231;28;20419;-72
2022/11/02 01:49:11;;;;;;;0.70;0.52;;;;;;;13.59;77.71;100766.97;4970764;28;20066;-72
2022/11/02 01:51:45;;;;;;;3.13;1.17;;;;;;;13.49;78.38;100762.25;4955494;28;20515;-72
2022/11/02 01:54:21;;;;;;;1.95;0.57;;;;;;;13.51;78.26;100765.34;4947701;29;20039;-72
2022/11/02 01:56:57;;;;;;;1.73;0.73;;;;;;;13.52;78.02;100761.47;4952126;28;20488;-72
2022/11/02 01:59:28;;;;;;;2.42;0.57;;;;;;;13.66;77.77;100755.44;4953731;29;20055;-72
2022/11/02 02:01:54;;;;;;;0.90;0.50;;;;;;;13.48;77.85;100757.97;4952167;28;20114;-72
2022/11/02 02:04:20;;;;;;;0.93;0.70;;;;;;;13.38;77.84;100739.69;4968786;28;20125;-72
2022/11/02 02:06:46;;;;;;;1.90;0.47;;;;;;;13.50;77.73;100750.25;4954229;29;20046;-72
2022/11/02 02:09:13;;;;;;;1.20;0.50;;;;;;;13.27;78.32;100744.22;4948944;28;20075;-73
2022/11/02 02:11:39;;;;;;;2.53;0.75;;;;;;;13.28;79.01;100743.06;4953846;29;20126;-72
2022/11/02 02:14:17;;;;;;;1.02;0.28;;;;;;;13.30;79.01;100741.53;4968620;28;20111;-72
2022/11/02 02:17:08;;;;;;;0.85;0.52;;;;;;;13.28;78.75;100734.94;4935095;29;20117;-72
2022/11/02 02:19:55;;;;;;;2.03;0.70;;;;;;;13.39;79.18;100744.72;4947814;29;20031;-72
2022/11/02 02:22:35;;;;;;;1.38;0.55;;;;;;;13.45;78.08;100728.97;4952642;28;20291;-72
2022/11/02 02:25:04;;;;;;;1.63;0.80;;;;;;;13.14;79.54;100737.50;4948554;28;20039;-72
2022/11/02 02:28:03;;;;;;;2.15;0.60;;;;;;;13.41;78.90;100728.91;4948630;29;20043;-72
2022/11/02 02:30:38;;;;;;;0.43;0.40;;;;;;;13.46;78.27;100730.50;4949552;28;20050;-72
2022/11/02 02:33:15;;;;;;;2.88;1.00;;;;;;;13.44;77.86;100747.09;4953285;29;20129;-72
2022/11/02 02:35:47;;;;;;;2.05;0.40;;;;;;;13.55;78.08;100736.38;4967924;28;20522;-72
2022/11/02 02:38:31;;;;;;;2.03;0.38;;;;;;;13.56;77.70;100727.13;4954222;29;20127;-72
2022/11/02 02:41:09;;;;;;;2.88;0.38;;;;;;;13.54;77.78;100722.09;4952098;29;20135;-72
2022/11/02 02:43:56;;;;;;;4.78;0.52;;;;;;;13.71;76.28;100714.47;4954102;28;20122;-72
2022/11/02 02:46:40;;;;;;;2.30;0.60;;;;;;;13.67;77.00;100721.78;4952959;28;20070;-72
2022/11/02 02:49:10;;;;;;;1.70;0.65;;;;;;;13.54;76.92;100708.56;4962235;28;20102;-72
2022/11/02 02:51:36;;;;;;;2.35;0.50;;;;;;;13.38;77.73;100707.22;4940802;28;20114;-72
2022/11/02 02:54:08;;;;;;;1.10;0.45;;;;;;;13.38;78.17;100712.63;4961504;28;20034;-72
2022/11/02 02:56:41;;;;;;;3.50;0.80;;;;;;;13.46;77.89;100722.38;4952796;28;20086;-72
2022/11/02 02:59:21;;;;;;;0.68;0.40;;;;;;;13.39;77.68;100714.22;4968358;28;20042;-72
2022/11/02 03:01:47;;;;;;;4.13;0.77;;;;;;;13.53;77.75;100719.72;4948475;29;20429;-72
2022/11/02 03:04:13;;;;;;;6.13;0.75;;;;;;;13.47;77.46;100715.84;4934070;29;20034;-72
2022/11/02 03:06:45;;;;;;;1.75;0.50;;;;;;;13.43;78.21;100718.47;4931370;29;20095;-73
2022/11/02 03:09:13;;;;;;;0.77;0.50;;;;;;;13.57;78.70;100709.72;4952200;29;20035;-72
2022/11/02 03:12:04;;;;;;;1.63;0.68;;;;;;;13.76;79.00;100717.66;4935233;29;20027;-73
2022/11/02 03:14:51;;;;;;;1.52;0.40;;;;;;;13.61;79.44;100715.19;4953026;29;20039;-73
2022/11/02 03:17:28;;;;;;;2.65;0.75;;;;;;;13.71;79.21;100715.25;4961524;28;20045;-73
2022/11/02 03:20:02;;;;;;;1.27;0.63;;;;;;;13.78;78.19;100717.25;4968559;28;20100;-73
2022/11/02 03:22:42;;;;;;;3.75;1.13;;;;;;;13.70;78.82;100713.72;4968481;28;20069;-73
2022/11/02 03:25:26;;;;;;;2.08;0.60;;;;;;;13.79;79.27;100710.69;4931881;29;20118;-72
2022/11/02 03:28:02;;;;;;;1.75;1.10;;;;;;;13.65;78.42;100716.75;4948875;29;20028;-72
2022/11/02 03:30:35;;;;;;;8.55;1.42;;;;;;;13.45;79.48;100710.03;4949315;29;20505;-72
2022/11/02 03:33:36;;;;;;;3.92;0.70;;;;;;;13.65;79.34;100702.44;4948985;29;20034;-72
2022/11/02 03:36:09;;;;;;;4.07;1.50;;;;;;;13.59;79.41;100710.13;4927164;28;20050;-73
2022/11/02 03:39:13;;;;;;;7.43;1.25;;;;;;;13.80;79.34;100709.56;4963488;28;20716;-72
2022/11/02 03:41:43;;;;;;;4.43;1.55;;;;;;;13.79;79.60;100714.19;4914734;29;20532;-72
2022/11/02 03:44:17;;;;;;;4.22;1.40;;;;;;;13.78;80.47;100704.50;4928887;29;20101;-73
2022/11/02 03:46:44;;;;;;;1.42;0.93;;;;;;;13.88;81.01;100706.50;4957942;28;20031;-73
2022/11/02 03:49:17;;;;;;;0.90;0.60;;;;;;;13.96;81.26;100715.47;4951469;28;20020;-73
2022/11/02 03:51:45;;;;;;;5.38;1.10;;;;;;;13.87;83.16;100718.50;4967784;28;20431;-73
2022/11/02 03:54:43;;;;;;;1.95;0.57;;;;;;;13.81;84.17;100703.75;4966770;28;20278;-72
2022/11/02 03:57:18;;;;;;;2.67;0.50;;;;;;;13.59;84.62;100707.41;4943393;29;20031;-72
2022/11/02 03:59:44;;;;;;;6.28;1.35;;;;;;;13.44;85.67;100716.56;4950998;29;20031;-72
2022/11/02 04:02:11;;;;;;;5.78;0.75;;;;;;;13.53;86.37;100708.91;4949141;28;20034;-72
2022/11/02 04:04:47;;;;;;;0.77;0.50;;;;;;;13.69;85.37;100712.16;4965445;28;20121;-72
2022/11/02 04:07:15;;;;;;;1.92;0.55;;;;;;;13.56;86.21;100716.31;4966565;28;20032;-72
2022/11/02 04:09:41;;;;;;;5.80;0.63;;;;;;;13.50;86.04;100710.44;4952373;28;20050;-72
2022/11/02 04:14:51;;;;;;;3.38;0.57;;;;;;;13.48;86.67;100718.16;4951221;29;20086;-72
2022/11/02 04:20:07;;;;;;;1.40;0.80;;;;;;;13.55;87.53;100712.03;4951125;29;20126;-72
2022/11/02 04:25:19;;;;;;;2.95;0.60;;;;;;;13.70;86.72;100719.13;4958697;28;20086;-72
2022/11/02 04:28:10;;;;;;;3.85;0.88;;;;;;;13.51;86.04;100724.75;4932654;29;20051;-72
2022/11/02 04:30:41;;;;;;;2.58;0.60;;;;;;;13.55;86.96;100718.22;4931243;29;20032;-72
2022/11/02 04:36:02;;;;;;;3.67;0.73;;;;;;;13.76;85.93;100714.94;4962887;28;20514;-72
2022/11/02 04:38:41;;;;;;;0.70;0.45;;;;;;;13.85;86.02;100723.50;4950465;29;20031;-72
2022/11/02 04:41:41;;;;;;;0.85;0.60;;;;;;;13.66;85.56;100731.84;4967027;28;20031;-72
2022/11/02 04:44:16;;;;;;;3.25;0.60;;;;;;;13.82;85.40;100726.94;4945192;28;20035;-72
2022/11/02 04:46:50;;;;;;;1.83;0.77;;;;;;;13.87;85.44;100720.44;4979313;23;20043;-65
2022/11/02 04:49:17;;;;;;;0.38;0.30;;;;;;;13.82;84.25;100718.84;4980209;28;20086;-66
2022/11/02 04:51:43;;;;;;;0.90;0.57;;;;;;;13.58;84.91;100712.06;4981052;28;20035;-66
2022/11/02 04:54:09;;;;;;;3.47;0.57;;;;;;;13.53;85.64;100708.91;4967040;28;20602;-66
2022/11/02 04:56:36;;;;;;;1.90;0.75;;;;;;;13.65;85.61;100711.34;4964644;28;20150;-67
2022/11/02 04:59:02;;;;;;;0.57;0.40;;;;;;;13.75;85.05;100704.47;4957975;28;20125;-66
2022/11/02 05:01:30;;;;;;;1.10;0.57;;;;;;;13.54;84.53;100716.69;4964656;28;20035;-66
2022/11/02 05:03:57;;;;;;;1.25;0.50;;;;;;;13.64;84.91;100701.69;4980542;28;20023;-66
2022/11/02 05:06:25;;;;;;;11.00;0.93;;;;;;;13.64;85.03;100703.59;4966939;28;20515;-66
2022/11/02 05:08:52;;;;;;;1.63;0.40;;;;;;;13.75;84.50;100712.59;4969120;28;20065;-66
2022/11/02 05:11:17;;;;;;;1.73;0.52;;;;;;;13.77;84.33;100702.94;4968165;28;20063;-66
2022/11/02 05:13:44;;;;;;;1.25;0.30;;;;;;;13.82;84.04;100715.38;4958929;28;20048;-66
2022/11/02 05:16:15;;;;;;;1.30;0.30;;;;;;;13.89;84.02;100704.59;4964010;28;20027;-66
2022/11/02 05:18:41;;;;;;;;;;;;;;;13.88;83.87;100703.03;4969863;28;20056;-66
2022/11/02 05:21:09;;;;;;;6.85;1.10;;;;;;;13.83;84.28;100711.50;4968935;28;19997;-66
2022/11/02 05:23:34;;;;;;;2.28;0.57;;;;;;;13.74;84.50;100713.75;4966222;28;20058;-66
2022/11/02 05:26:06;;;;;;;4.45;0.52;;;;;;;13.60;84.81;100711.69;4958617;28;20043;-66
2022/11/02 05:28:36;;;;;;;3.83;0.70;;;;;;;13.61;84.90;100713.25;4965857;28;20043;-66
2022/11/02 05:31:04;;;;;;;1.85;0.60;;;;;;;13.77;84.52;100713.78;4970333;28;20058;-66
2022/11/02 05:33:31;;;;;;;4.30;0.65;;;;;;;13.89;84.62;100716.19;4972156;28;20042;-66
2022/11/02 05:36:01;;;;;;;5.82;0.63;;;;;;;13.89;84.25;100713.50;4967496;28;20022;-66
2022/11/02 05:38:28;;;;;;;3.47;0.60;;;;;;;13.92;84.04;100718.13;4956193;28;20202;-66
2022/11/02 05:40:56;;;;;;;2.42;0.40;;;;;;;13.92;83.67;100718.13;4972825;28;20130;-66
2022/11/02 05:43:22;;;;;;;4.10;0.68;;;;;;;13.82;84.46;100718.06;4951668;28;20126;-67
2022/11/02 05:45:56;;;;;;;0.73;0.40;;;;;;;13.72;85.10;100718.75;4966215;28;20117;-66
2022/11/02 05:48:23;;;;;;;0.47;0.40;;;;;;;13.81;84.36;100716.50;4973014;28;20042;-66
2022/11/02 05:50:48;;;;;;;3.95;0.68;;;;;;;13.79;84.57;100716.09;4974068;28;20082;-66
2022/11/02 05:53:15;;;;;;;1.15;0.45;;;;;;;13.63;84.40;100715.59;4967061;28;20042;-66
2022/11/02 05:55:40;;;;;;;1.95;0.60;;;;;;;13.63;84.90;100716.34;4961611;28;20031;-65
2022/11/02 05:58:06;;;;;;;1.55;0.52;;;;;;;13.83;83.87;100725.81;4962275;28;20050;-65
2022/11/02 06:00:31;;;;;;;3.97;0.70;;;;;;;13.73;84.59;100718.38;4967544;28;20039;-65
2022/11/02 06:02:57;;;;;;;3.30;0.55;;;;;;;13.73;84.59;100718.38;4960010;28;20115;-65
2022/11/02 06:05:24;;;;;;;1.75;0.90;;;;;;;13.68;85.32;100707.91;4964146;28;20182;-65
2022/11/02 06:07:50;;;;;;;2.10;0.60;;;;;;;13.54;85.51;100713.97;4956951;28;20050;-65
2022/11/02 06:10:17;;;;;;;1.05;0.50;;;;;;;13.57;85.31;100717.84;4965967;28;20030;-65
2022/11/02 06:12:43;;;;;;;4.57;0.88;;;;;;;13.56;85.38;100717.09;4972382;28;20051;-65
2022/11/02 06:15:09;;;;;;;0.88;0.47;;;;;;;13.53;85.65;100711.63;4969684;28;20058;-65
2022/11/02 06:17:39;;;;;;;1.65;0.65;;;;;;;13.57;85.85;100717.84;4972012;28;20034;-65
2022/11/02 06:20:05;;;;;;;0.80;0.43;;;;;;;13.40;86.73;100713.03;4972181;28;20121;-65
2022/11/02 06:22:38;;;;;;;1.63;0.50;;;;;;;13.59;86.27;100708.22;4965087;28;20062;-65
2022/11/02 06:25:03;;;;;;;3.00;0.52;;;;;;;13.69;85.72;100716.78;4966566;28;20043;-65
2022/11/02 06:27:29;;;;;;;1.23;0.63;;;;;;;13.69;85.61;100722.19;4971785;28;20470;-65
2022/11/02 06:29:54;;;;;;;4.32;1.40;;;;;;;13.77;85.63;100727.31;4971106;28;20031;-65
2022/11/02 06:32:19;;;;;;;6.88;0.73;;;;;;;13.75;85.65;100723.41;4972889;28;20039;-65
2022/11/02 06:34:48;;;;;;;4.50;0.70;;;;;;;13.89;84.79;100729.75;4959147;28;20080;-65
2022/11/02 06:37:13;;;;;;;2.75;0.90;;;;;;;13.70;85.33;100721.84;4970128;28;20030;-65
2022/11/02 06:39:39;;;;;;;3.97;1.10;;;;;;;13.79;86.66;100733.13;4971515;28;20050;-65
2022/11/02 06:42:04;;;;;;;0.50;0.40;;;;;;;13.79;85.47;100735.06;4963086;28;20039;-65
2022/11/02 06:44:30;;;;;;;0.40;0.40;;;;;;;13.87;86.16;100734.75;4967381;28;20038;-65
2022/11/02 06:46:55;;;;;;;1.25;0.55;;;;;;;13.90;86.19;100738.63;4970944;28;20031;-65
2022/11/02 06:49:21;;;;;;;1.38;0.32;;;;;;;14.05;85.98;100741.06;4967170;28;20035;-65
2022/11/02 06:51:49;;;;;;;2.22;0.50;;;;;;;14.15;85.26;100745.78;4977171;28;20029;-66
2022/11/02 06:54:15;;;;;;;1.80;0.95;;;;;;;14.08;84.78;100756.56;4969360;28;20030;-65
2022/11/02 06:56:40;;;;;;;1.33;0.65;;;;;;;14.08;84.80;100758.50;4973920;28;20545;-65
2022/11/02 06:59:05;;;;;;;3.33;0.50;;;;;;;13.97;84.65;100755.72;4970773;28;20042;-65
2022/11/02 07:01:31;;;;;;;0.35;0.32;;;;;;;14.00;84.70;100754.97;4971145;28;20027;-65
2022/11/02 07:03:56;;;;;;;3.33;0.50;;;;;;;14.09;84.74;100757.34;4971573;28;20503;-65
2022/11/02 07:06:21;;;;;;;1.90;0.77;;;;;;;14.28;84.37;100754.44;4971743;28;20021;-66
2022/11/02 07:08:47;;;;;;;2.97;0.57;;;;;;;14.34;83.82;100761.81;4968979;28;20122;-65
2022/11/02 07:11:14;;;;;;;1.90;0.38;;;;;;;14.34;83.65;100756.38;4972322;28;20483;-65
2022/11/02 07:13:40;;;;;;;1.10;0.40;;;;;;;14.27;84.28;100759.06;4973127;28;20085;-65
2022/11/02 07:16:06;;;;;;;3.35;0.52;;;;;;;14.25;83.84;100757.84;4967140;28;20030;-65
2022/11/02 07:18:31;;;;;;;2.88;0.68;;;;;;;14.35;83.75;100757.97;4970271;28;20521;-65
2022/11/02 07:21:01;;;;;;;6.20;0.50;;;;;;;14.26;83.36;100762.13;4962373;28;20488;-65
2022/11/02 07:23:27;;;;;;;4.38;0.50;;;;;;;14.28;83.36;100757.94;4969764;28;20038;-66
2022/11/02 07:25:52;;;;;;;1.10;0.65;;;;;;;14.17;84.22;100754.31;4963728;28;20039;-65
2022/11/02 07:28:18;;;;;;;0.40;0.40;;;;;;;14.26;84.09;100757.50;4968906;28;20105;-65
2022/11/02 07:30:43;;;;;;;2.47;1.10;;;;;;;14.33;83.68;100762.19;4971281;28;20034;-66
2022/11/02 07:33:11;;;;;;;1.90;0.60;;;;;;;14.34;83.47;100758.34;4975283;28;20459;-66
2022/11/02 07:35:37;;;;;;;3.88;0.70;;;;;;;14.36;83.32;100761.47;4966228;28;20085;-66
2022/11/02 07:38:05;;;;;;;4.85;1.08;;;;;;;14.51;82.78;100765.81;4972255;28;20404;-66
2022/11/02 07:40:32;;;;;;;1.80;0.50;;;;;;;14.52;82.48;100761.94;4971320;28;20041;-66
2022/11/02 07:42:59;;;;;;;5.40;0.57;;;;;;;14.35;83.21;100760.66;4968481;28;20045;-67
2022/11/02 07:45:45;;;;;;;0.50;0.32;;;;;;;14.46;82.93;100761.50;4972291;28;20054;-66
2022/11/02 07:48:11;;;;;;;1.33;0.60;;;;;;;14.48;82.33;100757.66;4969754;28;20519;-66
2022/11/02 07:50:36;;;;;;;2.80;0.25;;;;;;;14.50;82.26;100761.53;4965443;28;20030;-66
2022/11/02 07:53:02;;;;;;;3.55;1.00;;;;;;;14.51;81.97;100756.88;4988712;28;20041;-66
2022/11/02 07:55:31;;;;;;;1.13;0.77;;;;;;;14.58;81.95;100759.63;4978239;28;20034;-66
2022/11/02 07:58:03;;;;;;;3.42;0.47;;;;;;;14.57;81.99;100761.59;4966949;28;20042;-66
2022/11/02 08:00:32;;;;;;;5.15;0.70;;;;;;;14.48;82.56;100755.69;4962832;28;20053;-66
2022/11/02 08:02:59;;;;;;;3.53;0.63;;;;;;;14.65;82.18;100760.47;4961984;28;20035;-66
2022/11/02 08:05:26;;;;;;;1.30;0.70;;;;;;;14.78;82.00;100767.13;4962457;28;20054;-66
2022/11/02 08:08:19;;;;;;;4.05;0.60;;;;;;;14.84;81.78;100759.41;4970546;28;20041;-66
2022/11/02 08:10:46;;;;;;;2.55;0.88;;;;;;;14.66;81.97;100759.31;4966123;28;20492;-66
2022/11/02 08:13:15;;;;;;;4.05;0.40;;;;;;;14.65;82.29;100763.19;4963622;28;20023;-65
2022/11/02 08:15:40;;;;;;;2.15;0.57;;;;;;;14.80;82.39;100766.72;4966818;28;20031;-66
2022/11/02 08:18:14;;;;;;;3.03;0.90;;;;;;;15.12;81.16;100775.78;4966287;28;20050;-66
2022/11/02 08:20:40;;;;;;;3.53;0.70;;;;;;;15.25;80.21;100763.44;4967024;28;20129;-66
2022/11/02 08:23:09;;;;;;;0.85;0.22;;;;;;;15.18;79.86;100771.53;4966281;28;20105;-66
2022/11/02 08:25:36;;;;;;;0.60;0.50;;;;;;;15.15;80.11;100780.44;4967995;28;20045;-66
2022/11/02 08:28:01;;;;;;;2.05;0.60;;;;;;;15.31;79.49;100772.75;4971808;28;20042;-66
2022/11/02 08:30:29;;;;;;;4.20;0.60;;;;;;;15.19;79.29;100778.53;4963618;28;20038;-66
2022/11/02 08:33:00;;;;;;;5.65;0.73;;;;;;;15.15;79.76;100777.75;4971538;28;20034;-66
2022/11/02 08:35:26;;;;;;;1.15;0.50;;;;;;;15.08;79.53;100777.69;4972319;28;20030;-66
2022/11/02 08:37:53;;;;;;;5.35;0.70;;;;;;;15.05;79.35;100773.03;4969567;28;20125;-66
2022/11/02 08:40:19;;;;;;;5.50;1.15;;;;;;;15.19;78.96;100781.25;4968996;28;20113;-66
2022/11/02 08:42:45;;;;;;;1.35;0.77;;;;;;;15.19;78.75;100781.25;4963881;28;20119;-66
2022/11/02 08:45:10;;;;;;;5.28;0.50;;;;;;;15.33;78.35;100789.41;4969670;28;20031;-66
2022/11/02 08:47:42;;;;;;;2.38;0.43;;;;;;;15.40;78.37;100789.44;4970183;28;20039;-66
2022/11/02 08:50:08;;;;;;;5.13;0.88;;;;;;;15.30;78.56;100790.19;4967420;28;20035;-66
2022/11/02 08:52:35;;;;;;;1.05;0.30;;;;;;;15.45;78.38;100791.81;4959333;28;20030;-66
2022/11/02 08:55:01;;;;;;;2.17;0.50;;;;;;;15.53;77.57;100796.09;4969732;28;20065;-66
2022/11/02 08:57:26;;;;;;;2.38;0.95;;;;;;;15.41;77.19;100791.00;4969056;28;20070;-66
2022/11/02 08:59:52;;;;;;;4.72;0.60;;;;;;;15.41;77.81;100791.00;4966846;28;20383;-65
2022/11/02 09:02:17;;;;;;;5.03;0.60;;;;;;;15.55;77.30;100780.19;4962641;28;20122;-65
2022/11/02 09:04:42;;;;;;;1.60;0.73;;;;;;;15.44;76.86;100782.13;4965591;28;20030;-65
2022/11/02 09:07:08;;;;;;;2.58;0.70;;;;;;;15.47;76.03;100805.00;4974568;28;20440;-65
2022/11/02 09:09:33;;;;;;;2.00;0.77;;;;;;;15.50;76.58;100805.03;4973690;28;20046;-65
2022/11/02 09:11:58;;;;;;;2.85;0.50;;;;;;;15.44;76.80;100803.06;4969897;28;20047;-65
2022/11/02 09:14:24;;;;;;;3.92;0.70;;;;;;;15.64;76.05;100805.03;4971939;28;20030;-65
2022/11/02 09:16:49;;;;;;;3.60;0.50;;;;;;;15.68;75.87;100805.81;4974440;28;20042;-65
2022/11/02 09:19:14;;;;;;;3.55;0.40;;;;;;;15.90;75.45;100814.78;4970123;28;20045;-65
2022/11/02 09:21:40;;;;;;;0.65;0.43;;;;;;;15.77;74.92;100811.69;4971841;28;20518;-65
2022/11/02 09:24:06;;;;;;;3.53;1.02;;;;;;;15.92;74.01;100807.03;4971332;28;20035;-64
2022/11/02 09:26:31;;;;;;;1.02;0.30;;;;;;;15.83;74.53;100810.09;4972404;28;20054;-65
2022/11/02 09:28:56;;;;;;;0.52;0.30;;;;;;;15.76;74.80;100831.06;4988603;28;20042;-65
2022/11/02 09:31:22;;;;;;;1.48;0.40;;;;;;;15.80;74.89;100810.91;4971648;28;20499;-65
2022/11/02 09:33:47;;;;;;;2.92;0.55;;;;;;;15.79;74.78;100835.72;4958665;28;20058;-65
2022/11/02 09:36:13;;;;;;;2.83;0.40;;;;;;;15.89;73.82;100829.53;4985389;28;20498;-64
2022/11/02 09:38:38;;;;;;;0.98;0.45;;;;;;;15.91;73.35;100836.13;4999098;28;20108;-65
2022/11/02 09:41:11;;;;;;;0.77;0.45;;;;;;;15.82;73.47;100843.88;4973267;28;20038;-65
2022/11/02 09:43:58;;;;;;;2.50;0.88;;;;;;;15.82;73.17;100833.00;4972369;28;20074;-64
2022/11/02 09:46:29;;;;;;;3.72;0.40;;;;;;;15.67;73.94;100839.59;4973298;28;20039;-65
2022/11/02 09:49:05;;;;;;;1.52;0.68;;;;;;;15.63;73.82;100838.78;4970202;28;20094;-65
2022/11/02 09:51:36;;;;;;;1.90;0.47;;;;;;;15.64;72.95;100843.06;4968820;28;20091;-66
2022/11/02 09:54:16;;;;;;;3.65;1.00;;;;;;;15.56;74.45;100836.06;4965968;28;20677;-65
2022/11/02 09:56:43;;;;;;;0.55;0.38;;;;;;;15.69;73.36;100836.47;4968770;28;20067;-65
2022/11/02 09:59:19;;;;;;;3.65;0.75;;;;;;;15.76;72.68;100847.34;4969542;28;20407;-65
2022/11/02 10:02:12;;;;;;;4.82;0.70;;;;;;;15.79;72.79;100841.94;4967185;28;20030;-64
2022/11/02 10:04:47;;;;;;;1.15;0.43;;;;;;;16.02;71.61;100841.59;4969465;28;20031;-64
2022/11/02 10:07:21;;;;;;;10.15;0.68;;;;;;;16.20;70.69;100851.28;4966964;28;20042;-65
2022/11/02 10:09:55;;;;;;;2.30;0.50;;;;;;;16.27;70.01;100839.66;4967119;28;20035;-65
2022/11/02 10:12:45;;;;;;;1.17;0.93;;;;;;;16.10;69.23;100843.91;4969502;28;20161;-65
2022/11/02 10:15:20;;;;;;;0.70;0.50;;;;;;;15.99;69.37;100845.06;4970049;28;20086;-65
2022/11/02 10:17:49;;;;;;;3.13;0.55;;;;;;;16.06;69.98;100845.88;4963294;28;20039;-65
2022/11/02 10:20:31;;;;;;;2.28;0.43;;;;;;;15.81;71.13;100855.91;4965776;28;20042;-65
2022/11/02 10:23:06;;;;;;;0.68;0.50;;;;;;;15.87;73.48;100861.75;4973385;28;20039;-65
2022/11/02 10:25:33;;;;;;;0.90;0.30;;;;;;;16.07;74.06;100862.94;4969819;28;20457;-65
2022/11/02 10:28:15;;;;;;;1.33;0.40;;;;;;;16.17;74.73;100860.25;4972578;28;20086;-65
2022/11/02 10:30:43;;;;;;;2.05;0.40;;;;;;;15.85;79.06;100872.97;4970147;28;20085;-65
2022/11/02 10:33:13;;;;;;;2.33;0.85;;;;;;;15.84;80.19;100882.28;4972956;28;20089;-65
2022/11/02 10:35:53;;;;;;;2.97;0.60;;;;;;;15.68;81.27;100883.81;4965475;28;20049;-65
2022/11/02 10:38:25;;;;;;;5.63;0.40;;;;;;;15.35;84.12;100888.28;4973327;28;20511;-65
2022/11/02 10:41:09;;;;;;;4.22;0.80;;;;;;;15.25;85.21;100882.81;4972634;28;20043;-65
2022/11/02 10:44:12;;;;;;;1.05;0.95;;;;;;;15.18;86.67;100890.91;4967097;28;20038;-64
2022/11/02 10:46:46;;;;;;;1.70;0.40;;;;;;;15.01;88.69;100889.66;4983960;23;20074;-68
2022/11/02 10:49:32;;;;;;;3.05;0.52;;;;;;;15.19;86.36;100893.25;4986986;28;20053;-71
2022/11/02 10:52:00;;;;;;;1.05;0.38;;;;;;;15.13;86.50;100894.00;4992370;28;20038;-73
2022/11/02 10:54:26;;;;;;;4.18;0.98;;;;;;;15.13;87.08;100894.00;4997077;28;20033;-68
2022/11/02 10:56:51;;;;;;;1.77;0.70;;;;;;;15.13;86.20;100896.72;4998121;28;20026;-68
2022/11/02 10:59:19;;;;;;;1.13;0.30;;;;;;;15.18;85.79;100904.47;4989127;28;20034;-68
2022/11/02 11:02:10;;;;;;;4.63;0.50;;;;;;;14.99;85.31;100904.75;4976850;28;20475;-69
2022/11/02 11:04:56;;;;;;;0.95;0.47;;;;;;;15.29;84.63;100902.63;4980448;28;20514;-70
2022/11/02 11:07:26;;;;;;;2.40;0.85;;;;;;;15.26;85.57;100916.94;4981201;28;20038;-69
2022/11/02 11:09:55;;;;;;;0.63;0.50;;;;;;;15.37;84.51;100912.34;4965986;28;20126;-68
2022/11/02 11:12:30;;;;;;;1.45;0.45;;;;;;;15.65;83.88;100917.94;4979472;28;20054;-68
2022/11/02 11:14:58;;;;;;;4.18;0.52;;;;;;;15.72;83.42;100923.38;4968468;28;20049;-68
2022/11/02 11:17:30;;;;;;;3.88;0.60;;;;;;;15.79;82.90;100925.34;4972836;28;20041;-69
2022/11/02 11:19:57;;;;;;;3.03;0.68;;;;;;;15.87;80.69;100919.53;4999924;28;20462;-68
2022/11/02 11:22:28;;;;;;;2.03;0.45;;;;;;;15.94;80.30;100926.94;4973996;28;20038;-69
2022/11/02 11:25:18;;;;;;;5.22;0.75;;;;;;;15.97;79.78;100929.66;4980824;28;20078;-68
2022/11/02 11:27:49;;;;;;;1.52;0.40;;;;;;;15.88;80.10;100929.25;4969755;28;20086;-68
2022/11/02 11:30:26;;;;;;;1.75;0.52;;;;;;;15.59;80.14;100926.81;4986101;28;20061;-68
2022/11/02 11:32:53;;;;;;;1.50;0.85;;;;;;;15.71;80.25;100915.63;4983565;28;20035;-69
2022/11/02 11:35:19;;;;;;;1.50;0.57;;;;;;;15.92;79.07;100927.34;4970304;28;20042;-69
2022/11/02 11:37:50;;;;;;;1.63;0.82;;;;;;;15.99;78.93;100938.22;4965746;28;20069;-69
2022/11/02 11:40:19;;;;;;;2.58;0.40;;;;;;;16.11;79.15;100934.38;4987925;28;20045;-69
2022/11/02 11:42:48;;;;;;;1.48;0.45;;;;;;;16.19;77.91;100925.84;4977928;28;20039;-70
2022/11/02 11:45:22;;;;;;;2.30;0.80;;;;;;;16.24;76.58;100935.53;4976533;28;20061;-69
2022/11/02 11:47:54;;;;;;;1.73;0.68;;;;;;;16.26;76.97;100928.56;4979360;28;20042;-68
2022/11/02 11:50:19;;;;;;;1.00;0.30;;;;;;;16.28;77.65;100930.91;4980520;28;20593;-70